createdAt,value
2023-04-20T00:04:29.258Z,9.93
2023-04-20T00:09:31.286Z,9.94
2023-04-20T00:14:32.512Z,9.92
2023-04-20T00:19:33.723Z,9.92
2023-04-20T00:24:35.597Z,9.97
2023-04-20T00:29:36.862Z,9.95
2023-04-20T00:34:38.545Z,9.95
2023-04-20T00:39:40.623Z,10.00
2023-04-20T00:44:41.768Z,10.01
2023-04-20T00:49:43.056Z,9.98
2023-04-20T00:54:44.345Z,9.94
2023-04-20T00:59:45.961Z,9.95
2023-04-20T01:04:47.500Z,9.90
2023-04-20T01:09:48.666Z,9.84
2023-04-20T01:14:49.836Z,9.81
2023-04-20T01:19:51.104Z,9.75
2023-04-20T01:24:52.674Z,9.62
2023-04-20T01:29:53.901Z,9.55
2023-04-20T01:34:56.256Z,9.45
2023-04-20T01:39:57.983Z,9.34
2023-04-20T01:44:59.447Z,9.29
2023-04-20T01:50:00.690Z,9.21
2023-04-20T01:55:01.915Z,9.13
2023-04-20T02:00:04.466Z,9.07
2023-04-20T02:05:06.715Z,9.01
2023-04-20T02:10:08.915Z,8.95
2023-04-20T02:15:10.380Z,8.90
2023-04-20T02:20:14.733Z,8.79
2023-04-20T02:25:15.958Z,8.72
2023-04-20T02:30:17.360Z,8.63
2023-04-20T02:35:19.295Z,8.54
2023-04-20T02:40:20.661Z,8.48
2023-04-20T02:45:21.899Z,8.37
2023-04-20T02:50:23.557Z,8.30
2023-04-20T02:55:25.007Z,8.21
2023-04-20T03:00:26.278Z,8.14
2023-04-20T03:05:27.495Z,8.10
2023-04-20T03:10:28.915Z,8.03
2023-04-20T03:15:30.129Z,7.99
2023-04-20T03:20:31.887Z,7.90
2023-04-20T03:25:33.106Z,7.87
2023-04-20T03:30:34.346Z,7.84
2023-04-20T03:35:38.591Z,7.79
2023-04-20T03:40:39.904Z,7.80
2023-04-20T03:45:41.340Z,7.78
2023-04-20T03:50:42.569Z,7.84
2023-04-20T03:55:43.764Z,8.01
2023-04-20T04:00:45.001Z,7.97
2023-04-20T04:05:46.143Z,7.98
2023-04-20T04:10:47.504Z,7.97
2023-04-20T04:15:49.531Z,7.94
2023-04-20T04:20:51.000Z,7.91
2023-04-20T04:25:52.264Z,7.95
2023-04-20T04:30:53.526Z,8.02
2023-04-20T04:35:54.762Z,8.06
2023-04-20T04:40:56.668Z,8.14
2023-04-20T04:45:57.949Z,8.20
2023-04-20T04:50:59.156Z,8.24
2023-04-20T04:56:00.439Z,8.31
2023-04-20T05:01:01.667Z,8.35
2023-04-20T05:06:03.062Z,8.43
2023-04-20T05:11:04.370Z,8.52
2023-04-20T05:16:05.925Z,8.58
2023-04-20T05:21:07.458Z,8.63
2023-04-20T05:26:08.927Z,8.68
2023-04-20T05:31:10.677Z,8.75
2023-04-20T05:36:12.450Z,8.88
2023-04-20T05:41:13.997Z,8.97
2023-04-20T05:46:15.357Z,9.09
2023-04-20T05:51:16.687Z,9.27
2023-04-20T05:56:17.966Z,9.39
2023-04-20T06:01:19.290Z,9.55
2023-04-20T06:06:20.566Z,9.86
2023-04-20T06:11:21.933Z,10.14
2023-04-20T06:16:23.385Z,10.40
2023-04-20T06:21:26.607Z,10.78
2023-04-20T06:26:27.926Z,10.66
2023-04-20T06:31:29.147Z,10.63
2023-04-20T06:36:31.037Z,10.82
2023-04-20T06:41:32.252Z,11.22
2023-04-20T06:46:33.829Z,12.03
2023-04-20T06:51:35.155Z,13.34
2023-04-20T06:56:36.442Z,13.61
2023-04-20T07:01:37.741Z,13.10
2023-04-20T07:06:39.150Z,12.78
2023-04-20T07:11:40.512Z,12.81
2023-04-20T07:16:42.064Z,12.87
2023-04-20T07:21:43.786Z,13.05
2023-04-20T07:26:45.065Z,13.13
2023-04-20T07:31:46.265Z,13.36
2023-04-20T07:36:47.607Z,13.82
2023-04-20T07:41:48.920Z,14.51
2023-04-20T07:46:50.250Z,15.32
2023-04-20T07:51:51.470Z,16.30
2023-04-20T07:56:54.093Z,17.01
2023-04-20T08:02:00.888Z,18.24
2023-04-20T08:07:02.308Z,18.67
2023-04-20T08:12:04.850Z,19.19
2023-04-20T08:17:07.527Z,19.48
2023-04-20T08:22:11.507Z,19.86
2023-04-20T08:27:12.985Z,19.91
2023-04-20T08:32:14.928Z,20.10
2023-04-20T08:37:16.317Z,20.07
2023-04-20T08:42:17.714Z,20.33
2023-04-20T08:47:20.440Z,20.74
2023-04-20T08:52:21.955Z,20.93
2023-04-20T08:57:23.848Z,20.85
2023-04-20T09:02:25.396Z,20.80
2023-04-20T09:07:26.765Z,20.92
2023-04-20T09:12:28.418Z,20.95
2023-04-20T09:17:33.591Z,20.78
2023-04-20T09:22:36.900Z,20.81
2023-04-20T09:27:38.108Z,20.87
2023-04-20T09:32:39.647Z,21.16
2023-04-20T09:37:48.652Z,21.24
2023-04-20T09:42:54.201Z,21.10
2023-04-20T09:47:56.881Z,21.27
2023-04-20T09:53:00.123Z,21.27
2023-04-20T09:58:04.014Z,21.15
2023-04-20T10:03:08.419Z,21.14
2023-04-20T10:08:10.415Z,21.11
2023-04-20T10:13:11.818Z,21.13
2023-04-20T10:18:24.182Z,21.30
2023-04-20T10:23:25.708Z,21.30
2023-04-20T10:28:44.161Z,21.23
2023-04-20T10:33:54.383Z,21.06
2023-04-20T10:38:57.322Z,20.73
2023-04-20T10:44:09.496Z,20.43
2023-04-20T10:49:10.663Z,20.10
2023-04-20T10:54:11.994Z,19.89
2023-04-20T11:04:19.059Z,19.97
2023-04-20T11:09:28.128Z,20.02
2023-04-20T11:14:32.979Z,19.99
2023-04-20T11:19:36.456Z,20.14
2023-04-20T11:24:40.471Z,20.07
2023-04-20T11:29:41.720Z,20.09
2023-04-20T11:34:43.482Z,19.98
2023-04-20T11:39:46.193Z,19.96
2023-04-20T11:44:47.489Z,19.83
2023-04-20T11:49:48.666Z,19.78
2023-04-20T11:54:50.305Z,19.78
2023-04-20T11:59:51.505Z,19.79
2023-04-20T12:04:52.789Z,19.68
2023-04-20T12:09:54.068Z,19.47
2023-04-20T12:14:55.310Z,19.59
2023-04-20T12:19:57.180Z,19.55
2023-04-20T12:24:58.402Z,19.61
2023-04-20T12:29:59.598Z,19.68
2023-04-20T12:35:00.996Z,19.68
2023-04-20T12:40:05.696Z,19.61
2023-04-20T12:45:07.896Z,19.70
2023-04-20T12:50:09.973Z,19.55
2023-04-20T12:55:11.950Z,19.22
2023-04-20T13:00:14.662Z,18.88
2023-04-20T13:05:16.642Z,18.86
2023-04-20T13:10:17.846Z,18.93
2023-04-20T13:15:32.065Z,19.04
2023-04-20T13:20:40.494Z,19.40
2023-04-20T13:25:41.742Z,19.67
2023-04-20T13:30:43.555Z,19.65
2023-04-20T13:35:45.439Z,19.26
2023-04-20T13:40:47.590Z,18.93
2023-04-20T13:45:49.209Z,18.82
2023-04-20T13:50:50.763Z,18.89
2023-04-20T13:55:52.198Z,19.19
2023-04-20T14:00:53.984Z,19.20
2023-04-20T14:05:55.228Z,19.03
2023-04-20T14:10:56.456Z,19.00
2023-04-20T14:15:57.758Z,19.07
2023-04-20T14:20:58.958Z,18.98
2023-04-20T14:26:00.406Z,18.78
2023-04-20T14:31:02.282Z,18.59
2023-04-20T14:36:03.689Z,18.44
2023-04-20T14:41:05.059Z,18.34
2023-04-20T14:46:06.767Z,18.33
2023-04-20T14:51:08.158Z,18.39
2023-04-20T14:56:09.326Z,18.54
2023-04-20T15:01:10.662Z,18.68
2023-04-20T15:06:11.902Z,18.66
2023-04-20T15:11:13.062Z,18.48
2023-04-20T15:16:15.059Z,18.32
2023-04-20T15:21:16.324Z,18.18
2023-04-20T15:26:17.804Z,18.09
2023-04-20T15:31:19.108Z,18.09
2023-04-20T15:36:20.581Z,18.14
2023-04-20T15:41:21.897Z,18.21
2023-04-20T15:46:25.194Z,18.23
2023-04-20T15:51:27.316Z,18.17
2023-04-20T15:56:28.515Z,18.03
2023-04-20T16:01:29.934Z,17.88
2023-04-20T16:06:31.332Z,17.72
2023-04-20T16:11:34.313Z,17.62
2023-04-20T16:16:35.547Z,17.55
2023-04-20T16:21:36.770Z,17.53
2023-04-20T16:26:39.002Z,17.51
2023-04-20T16:31:41.414Z,17.51
2023-04-20T16:36:43.511Z,17.50
2023-04-20T16:41:44.850Z,17.47
2023-04-20T16:46:50.568Z,17.45
2023-04-20T16:51:51.887Z,17.43
2023-04-20T16:56:53.134Z,17.36
2023-04-20T17:01:54.397Z,17.25
2023-04-20T17:06:55.563Z,17.14
2023-04-20T17:11:58.690Z,17.04
2023-04-20T17:17:00.051Z,16.95
2023-04-20T17:22:02.855Z,16.84
2023-04-20T17:27:04.134Z,16.74
2023-04-20T17:32:05.492Z,16.62
2023-04-20T17:37:06.731Z,16.50
2023-04-20T17:42:10.035Z,16.36
2023-04-20T17:47:14.057Z,16.21
2023-04-20T17:52:18.714Z,16.06
2023-04-20T17:57:20.165Z,15.92
2023-04-20T18:02:23.902Z,15.79
2023-04-20T18:07:26.654Z,15.67
2023-04-20T18:12:27.803Z,15.54
2023-04-20T18:17:29.264Z,15.41
2023-04-20T18:22:36.090Z,15.27
2023-04-20T18:27:37.498Z,15.15
2023-04-20T18:32:39.798Z,15.03
2023-04-20T18:37:41.148Z,14.90
2023-04-20T18:42:42.417Z,14.75
2023-04-20T18:47:43.618Z,14.61
2023-04-20T18:52:45.228Z,14.48
2023-04-20T18:57:46.482Z,14.34
2023-04-20T19:02:47.872Z,14.21
2023-04-20T19:07:49.192Z,14.07
2023-04-20T19:12:50.442Z,13.95
2023-04-20T19:17:54.880Z,13.83
2023-04-20T19:22:56.206Z,13.73
2023-04-20T19:27:58.044Z,13.61
2023-04-20T19:33:01.632Z,13.49
2023-04-20T19:38:03.285Z,13.38
2023-04-20T19:43:04.494Z,13.24
2023-04-20T19:48:05.827Z,13.10
2023-04-20T19:53:07.321Z,13.01
2023-04-20T19:58:09.854Z,12.90
2023-04-20T20:03:14.093Z,12.78
2023-04-20T20:08:16.111Z,12.60
2023-04-20T20:13:17.809Z,12.46
2023-04-20T20:18:19.833Z,12.40
2023-04-20T20:23:21.200Z,12.38
2023-04-20T20:28:22.370Z,12.35
2023-04-20T20:33:23.497Z,12.24
2023-04-20T20:38:24.674Z,12.12
2023-04-20T20:43:27.752Z,11.98
2023-04-20T20:48:29.025Z,11.83
2023-04-20T20:53:30.284Z,11.69
2023-04-20T20:58:31.563Z,11.57
2023-04-20T21:03:33.060Z,11.53
2023-04-20T21:08:34.503Z,11.47
2023-04-20T21:13:35.777Z,11.44
2023-04-20T21:18:36.986Z,11.39
2023-04-20T21:23:38.281Z,11.34
2023-04-20T21:28:39.558Z,11.23
2023-04-20T21:33:40.987Z,11.10
2023-04-20T21:38:42.232Z,10.99
2023-04-20T21:43:43.665Z,10.91
2023-04-20T21:48:45.125Z,10.88
2023-04-20T21:53:46.491Z,10.83
2023-04-20T21:58:47.701Z,10.74
2023-04-20T22:03:49.282Z,10.66
2023-04-20T22:08:50.798Z,10.60
2023-04-20T22:13:52.235Z,10.53
2023-04-20T22:18:53.714Z,10.43
2023-04-20T22:23:55.043Z,10.38
2023-04-20T22:28:56.280Z,10.30
2023-04-20T22:33:57.605Z,10.18
2023-04-20T22:38:58.870Z,10.08
2023-04-20T22:44:00.546Z,9.98
2023-04-20T22:49:01.845Z,9.92
2023-04-20T22:54:03.811Z,9.85
2023-04-20T22:59:05.290Z,9.76
2023-04-20T23:04:06.817Z,9.66
2023-04-20T23:09:09.520Z,9.52
2023-04-20T23:14:10.772Z,9.44
2023-04-20T23:19:11.990Z,9.34
2023-04-20T23:24:13.138Z,9.25
2023-04-20T23:29:14.299Z,9.18
2023-04-20T23:34:15.489Z,9.16
2023-04-20T23:39:16.947Z,9.13
2023-04-20T23:44:19.054Z,9.07
2023-04-20T23:49:20.436Z,8.96
2023-04-20T23:54:21.827Z,8.86
2023-04-20T23:59:23.078Z,8.78
